Terminal Aerodrome Forecast
Issued by NWS

Home | Current Version | Previous Version | Text Only | Print | Product List | Glossary Off
Versions: 1 2 3 4 5 6 7 8 9 10 11 12 13 14 15 16 17 18 19 20 21 22 23 24 25 26 27

900
FTUS42 KMHX 010540
TAFISO
TAF
KISO 010540Z 0106/0206 10006KT P6SM SCT007 BKN015
     FM010900 12005KT P6SM OVC007
     FM011200 13006KT P6SM BKN015
     FM011400 17010G15KT P6SM SCT040 BKN100
     FM011800 18011G18KT P6SM VCTS SCT040CB BKN100
     FM020000 18007KT P6SM BKN040
      AMD LTD TO CLD VIS AND WIND=

USA.gov is the U.S. government's official web portal to all federal, state and local government web resources and services.